Peabiru, Brazil
Current Conditions -  °F | °C
As of 10:00 PM on Friday 19 Dec 2014 (Local Time) from SBMG Reporting Station
Thunderstorm Thunderstorm  
Wind Chill: 84°   Ceiling: Unl
Heat Index: 88°   Visibility: 6mi
Dew Point: 70°   Wind: 2mph
Humidity: 62%   Direction: 20°NNE
Pressure: 29.77"   Gusts: NA
Location:  23.92°S, 52.34°W
Report Text: SBMG 200000Z 02002KT 9999 VCTS FEW050CB SCT080 29/21 Q1008
Loading
Personal Weather Stations






























Interactive Weather Map New forecast layout! Learn more

10-Day Weather Forecast

Advertisements
Track Severe Weather on mobile